sensor_id;sensor_type;location;lat;lon;timestamp;temperature;humidity
61255;DHT22;47128;47.530;8.584;2023-01-01T00:01:12;9.10;99.90
61255;DHT22;47128;47.530;8.584;2023-01-01T00:03:37;9.10;99.90
61255;DHT22;47128;47.530;8.584;2023-01-01T00:06:04;9.10;99.90
61255;DHT22;47128;47.530;8.584;2023-01-01T00:08:29;9.20;99.90
61255;DHT22;47128;47.530;8.584;2023-01-01T00:10:55;9.20;99.90
61255;DHT22;47128;47.530;8.584;2023-01-01T00:13:24;9.10;99.90
61255;DHT22;47128;47.530;8.584;2023-01-01T00:15:49;9.10;99.90
61255;DHT22;47128;47.530;8.584;2023-01-01T00:18:15;9.10;99.90
61255;DHT22;47128;47.530;8.584;2023-01-01T00:20:40;9.10;99.90
61255;DHT22;47128;47.530;8.584;2023-01-01T00:23:06;9.10;99.90
61255;DHT22;47128;47.530;8.584;2023-01-01T00:25:31;9.10;99.90
61255;DHT22;47128;47.530;8.584;2023-01-01T00:27:57;9.10;99.90
61255;DHT22;47128;47.530;8.584;2023-01-01T00:30:22;9.10;99.90
61255;DHT22;47128;47.530;8.584;2023-01-01T00:32:49;9.10;99.90
61255;DHT22;47128;47.530;8.584;2023-01-01T00:35:14;9.10;99.90
61255;DHT22;47128;47.530;8.584;2023-01-01T00:37:40;9.10;99.90
61255;DHT22;47128;47.530;8.584;2023-01-01T00:40:05;9.10;99.90
61255;DHT22;47128;47.530;8.584;2023-01-01T00:42:31;9.60;99.90
61255;DHT22;47128;47.530;8.584;2023-01-01T00:44:56;9.90;99.90
61255;DHT22;47128;47.530;8.584;2023-01-01T00:47:22;10.00;99.90
61255;DHT22;47128;47.530;8.584;2023-01-01T00:49:47;10.40;99.90
61255;DHT22;47128;47.530;8.584;2023-01-01T00:52:13;10.40;99.90
61255;DHT22;47128;47.530;8.584;2023-01-01T00:54:38;10.60;99.90
61255;DHT22;47128;47.530;8.584;2023-01-01T00:57:05;10.80;99.90
61255;DHT22;47128;47.530;8.584;2023-01-01T00:59:30;10.80;99.90
61255;DHT22;47128;47.530;8.584;2023-01-01T01:01:56;11.00;99.90
61255;DHT22;47128;47.530;8.584;2023-01-01T01:06:47;11.40;99.90
61255;DHT22;47128;47.530;8.584;2023-01-01T01:09:13;11.40;99.90
61255;DHT22;47128;47.530;8.584;2023-01-01T01:11:38;11.30;99.90
61255;DHT22;47128;47.530;8.584;2023-01-01T01:14:03;11.20;99.90
61255;DHT22;47128;47.530;8.584;2023-01-01T01:16:30;11.10;99.90
61255;DHT22;47128;47.530;8.584;2023-01-01T01:18:57;11.30;99.90
61255;DHT22;47128;47.530;8.584;2023-01-01T01:21:24;11.70;99.90
61255;DHT22;47128;47.530;8.584;2023-01-01T01:23:50;11.90;99.90
61255;DHT22;47128;47.530;8.584;2023-01-01T01:28:44;12.30;99.90
61255;DHT22;47128;47.530;8.584;2023-01-01T01:31:09;12.10;99.90
61255;DHT22;47128;47.530;8.584;2023-01-01T01:33:35;12.10;99.90
61255;DHT22;47128;47.530;8.584;2023-01-01T01:36:01;12.00;99.90
61255;DHT22;47128;47.530;8.584;2023-01-01T01:38:27;12.30;99.90
61255;DHT22;47128;47.530;8.584;2023-01-01T01:40:52;12.30;99.90
61255;DHT22;47128;47.530;8.584;2023-01-01T01:45:47;11.90;99.90
61255;DHT22;47128;47.530;8.584;2023-01-01T01:48:12;11.70;99.90
61255;DHT22;47128;47.530;8.584;2023-01-01T01:50:38;11.70;99.90
61255;DHT22;47128;47.530;8.584;2023-01-01T01:53:16;11.60;99.90
61255;DHT22;47128;47.530;8.584;2023-01-01T01:55:47;11.50;99.90
61255;DHT22;47128;47.530;8.584;2023-01-01T01:58:13;11.20;99.90
61255;DHT22;47128;47.530;8.584;2023-01-01T02:00:39;11.00;99.90
61255;DHT22;47128;47.530;8.584;2023-01-01T02:03:20;10.90;99.90
61255;DHT22;47128;47.530;8.584;2023-01-01T02:05:46;10.90;99.90
61255;DHT22;47128;47.530;8.584;2023-01-01T02:08:13;11.10;99.90
61255;DHT22;47128;47.530;8.584;2023-01-01T02:10:40;11.10;99.90
61255;DHT22;47128;47.530;8.584;2023-01-01T02:13:05;11.00;99.90
61255;DHT22;47128;47.530;8.584;2023-01-01T02:15:33;11.10;99.90
61255;DHT22;47128;47.530;8.584;2023-01-01T02:18:02;11.10;99.90
61255;DHT22;47128;47.530;8.584;2023-01-01T02:31:10;10.90;99.90
61255;DHT22;47128;47.530;8.584;2023-01-01T02:33:36;10.60;99.90
61255;DHT22;47128;47.530;8.584;2023-01-01T02:36:02;10.40;99.90
61255;DHT22;47128;47.530;8.584;2023-01-01T02:38:29;10.30;99.90
61255;DHT22;47128;47.530;8.584;2023-01-01T02:40:57;10.30;99.90
61255;DHT22;47128;47.530;8.584;2023-01-01T02:43:23;10.50;99.90
61255;DHT22;47128;47.530;8.584;2023-01-01T02:45:49;10.90;99.90
61255;DHT22;47128;47.530;8.584;2023-01-01T02:50:59;11.30;99.90
61255;DHT22;47128;47.530;8.584;2023-01-01T02:53:31;11.40;99.90
61255;DHT22;47128;47.530;8.584;2023-01-01T02:56:00;11.70;99.90
61255;DHT22;47128;47.530;8.584;2023-01-01T02:58:37;11.70;99.90
61255;DHT22;47128;47.530;8.584;2023-01-01T03:01:28;11.60;99.90
61255;DHT22;47128;47.530;8.584;2023-01-01T03:04:00;11.70;99.90
61255;DHT22;47128;47.530;8.584;2023-01-01T03:06:46;11.60;99.90
61255;DHT22;47128;47.530;8.584;2023-01-01T03:11:56;12.20;99.90
61255;DHT22;47128;47.530;8.584;2023-01-01T03:14:26;12.40;99.90
61255;DHT22;47128;47.530;8.584;2023-01-01T03:16:55;12.40;99.90
61255;DHT22;47128;47.530;8.584;2023-01-01T03:19:26;12.20;99.90
61255;DHT22;47128;47.530;8.584;2023-01-01T03:24:36;12.10;99.90
61255;DHT22;47128;47.530;8.584;2023-01-01T03:27:06;12.00;99.90
61255;DHT22;47128;47.530;8.584;2023-01-01T03:29:32;11.80;99.90
61255;DHT22;47128;47.530;8.584;2023-01-01T03:31:59;11.50;99.90
61255;DHT22;47128;47.530;8.584;2023-01-01T03:34:27;11.40;99.90
61255;DHT22;47128;47.530;8.584;2023-01-01T03:36:55;11.30;99.90
61255;DHT22;47128;47.530;8.584;2023-01-01T03:39:22;11.30;99.90
61255;DHT22;47128;47.530;8.584;2023-01-01T03:41:55;11.40;99.90
61255;DHT22;47128;47.530;8.584;2023-01-01T03:44:26;11.40;99.90
61255;DHT22;47128;47.530;8.584;2023-01-01T03:46:54;11.30;99.90
61255;DHT22;47128;47.530;8.584;2023-01-01T03:49:20;11.20;99.90
61255;DHT22;47128;47.530;8.584;2023-01-01T03:59:57;11.40;99.90
61255;DHT22;47128;47.530;8.584;2023-01-01T04:02:26;11.50;99.90
61255;DHT22;47128;47.530;8.584;2023-01-01T04:04:53;11.80;99.90
61255;DHT22;47128;47.530;8.584;2023-01-01T04:07:19;12.00;99.90
61255;DHT22;47128;47.530;8.584;2023-01-01T04:09:47;12.40;99.90
61255;DHT22;47128;47.530;8.584;2023-01-01T04:12:14;12.70;99.90
61255;DHT22;47128;47.530;8.584;2023-01-01T04:14:41;12.80;99.90
61255;DHT22;47128;47.530;8.584;2023-01-01T04:17:07;12.60;99.90
61255;DHT22;47128;47.530;8.584;2023-01-01T04:19:33;12.50;99.90
61255;DHT22;47128;47.530;8.584;2023-01-01T04:21:59;12.50;99.90
61255;DHT22;47128;47.530;8.584;2023-01-01T04:24:24;12.50;99.90
61255;DHT22;47128;47.530;8.584;2023-01-01T04:26:50;12.50;99.90
61255;DHT22;47128;47.530;8.584;2023-01-01T04:29:16;12.40;99.90
61255;DHT22;47128;47.530;8.584;2023-01-01T04:31:42;12.10;99.90
61255;DHT22;47128;47.530;8.584;2023-01-01T04:34:07;12.00;99.90
61255;DHT22;47128;47.530;8.584;2023-01-01T04:36:33;12.10;99.90
61255;DHT22;47128;47.530;8.584;2023-01-01T04:38:59;12.10;99.90
61255;DHT22;47128;47.530;8.584;2023-01-01T04:41:24;12.20;99.90
61255;DHT22;47128;47.530;8.584;2023-01-01T04:43:49;12.40;99.90
61255;DHT22;47128;47.530;8.584;2023-01-01T04:46:15;12.50;99.90
61255;DHT22;47128;47.530;8.584;2023-01-01T04:48:41;13.00;99.90
61255;DHT22;47128;47.530;8.584;2023-01-01T04:51:08;13.20;99.90
61255;DHT22;47128;47.530;8.584;2023-01-01T04:53:34;13.00;99.90
61255;DHT22;47128;47.530;8.584;2023-01-01T04:56:07;12.70;99.90
61255;DHT22;47128;47.530;8.584;2023-01-01T04:58:33;12.60;99.90
61255;DHT22;47128;47.530;8.584;2023-01-01T05:00:58;12.30;99.90
61255;DHT22;47128;47.530;8.584;2023-01-01T05:03:24;12.50;99.90
61255;DHT22;47128;47.530;8.584;2023-01-01T05:06:02;12.30;99.90
61255;DHT22;47128;47.530;8.584;2023-01-01T05:08:29;12.40;99.90
61255;DHT22;47128;47.530;8.584;2023-01-01T05:11:05;12.20;99.90
61255;DHT22;47128;47.530;8.584;2023-01-01T05:13:30;12.00;99.90
61255;DHT22;47128;47.530;8.584;2023-01-01T05:15:56;12.00;99.90
61255;DHT22;47128;47.530;8.584;2023-01-01T05:18:21;12.10;99.90
61255;DHT22;47128;47.530;8.584;2023-01-01T05:20:47;12.00;99.90
61255;DHT22;47128;47.530;8.584;2023-01-01T05:23:14;11.70;99.90
61255;DHT22;47128;47.530;8.584;2023-01-01T05:25:39;11.90;99.90
61255;DHT22;47128;47.530;8.584;2023-01-01T05:28:05;11.80;99.90
61255;DHT22;47128;47.530;8.584;2023-01-01T05:30:30;11.90;99.90
61255;DHT22;47128;47.530;8.584;2023-01-01T05:32:56;11.90;99.90
61255;DHT22;47128;47.530;8.584;2023-01-01T05:35:21;11.90;99.90
61255;DHT22;47128;47.530;8.584;2023-01-01T05:37:47;11.70;99.90
61255;DHT22;47128;47.530;8.584;2023-01-01T05:40:12;11.70;99.90
61255;DHT22;47128;47.530;8.584;2023-01-01T05:42:38;11.70;99.90
61255;DHT22;47128;47.530;8.584;2023-01-01T05:45:03;12.00;99.90
61255;DHT22;47128;47.530;8.584;2023-01-01T05:47:29;12.10;99.90
61255;DHT22;47128;47.530;8.584;2023-01-01T05:49:54;11.90;99.90
61255;DHT22;47128;47.530;8.584;2023-01-01T05:52:20;11.90;99.90
61255;DHT22;47128;47.530;8.584;2023-01-01T05:54:45;11.70;99.90
61255;DHT22;47128;47.530;8.584;2023-01-01T05:57:10;11.70;99.90
61255;DHT22;47128;47.530;8.584;2023-01-01T05:59:36;12.20;99.90
61255;DHT22;47128;47.530;8.584;2023-01-01T06:02:01;12.60;99.90
61255;DHT22;47128;47.530;8.584;2023-01-01T06:04:27;12.60;99.90
61255;DHT22;47128;47.530;8.584;2023-01-01T06:06:52;12.30;99.90
61255;DHT22;47128;47.530;8.584;2023-01-01T06:09:18;12.30;99.90
61255;DHT22;47128;47.530;8.584;2023-01-01T06:11:43;12.30;99.90
61255;DHT22;47128;47.530;8.584;2023-01-01T06:14:09;12.20;99.90
61255;DHT22;47128;47.530;8.584;2023-01-01T06:16:34;12.00;99.90
61255;DHT22;47128;47.530;8.584;2023-01-01T06:19:00;11.80;99.90
61255;DHT22;47128;47.530;8.584;2023-01-01T06:21:26;11.70;99.90
61255;DHT22;47128;47.530;8.584;2023-01-01T06:23:51;11.70;99.90
61255;DHT22;47128;47.530;8.584;2023-01-01T06:26:20;11.60;99.90
61255;DHT22;47128;47.530;8.584;2023-01-01T06:28:46;11.50;99.90
61255;DHT22;47128;47.530;8.584;2023-01-01T06:31:13;11.70;99.90
61255;DHT22;47128;47.530;8.584;2023-01-01T06:33:39;11.80;99.90
61255;DHT22;47128;47.530;8.584;2023-01-01T06:36:06;11.90;99.90
61255;DHT22;47128;47.530;8.584;2023-01-01T06:38:33;11.80;99.90
61255;DHT22;47128;47.530;8.584;2023-01-01T06:40:59;11.70;99.90
61255;DHT22;47128;47.530;8.584;2023-01-01T06:43:28;12.20;99.90
61255;DHT22;47128;47.530;8.584;2023-01-01T06:46:00;12.40;99.90
61255;DHT22;47128;47.530;8.584;2023-01-01T06:48:27;12.30;99.90
61255;DHT22;47128;47.530;8.584;2023-01-01T06:50:52;12.10;99.90
61255;DHT22;47128;47.530;8.584;2023-01-01T06:53:18;11.80;99.90
61255;DHT22;47128;47.530;8.584;2023-01-01T06:55:49;11.80;99.90
61255;DHT22;47128;47.530;8.584;2023-01-01T06:58:14;12.70;99.90
61255;DHT22;47128;47.530;8.584;2023-01-01T07:00:40;12.90;99.90
61255;DHT22;47128;47.530;8.584;2023-01-01T07:03:06;12.80;99.90
61255;DHT22;47128;47.530;8.584;2023-01-01T07:05:33;12.50;99.90
61255;DHT22;47128;47.530;8.584;2023-01-01T07:07:58;12.40;99.90
61255;DHT22;47128;47.530;8.584;2023-01-01T07:10:24;12.10;99.90
61255;DHT22;47128;47.530;8.584;2023-01-01T07:12:49;11.90;99.90
61255;DHT22;47128;47.530;8.584;2023-01-01T07:15:15;11.80;99.90
61255;DHT22;47128;47.530;8.584;2023-01-01T07:17:40;12.10;99.90
61255;DHT22;47128;47.530;8.584;2023-01-01T07:20:06;12.10;99.90
61255;DHT22;47128;47.530;8.584;2023-01-01T07:22:31;12.10;99.90
61255;DHT22;47128;47.530;8.584;2023-01-01T07:24:57;12.10;99.90
61255;DHT22;47128;47.530;8.584;2023-01-01T07:27:23;12.10;99.90
61255;DHT22;47128;47.530;8.584;2023-01-01T07:29:48;12.30;99.90
61255;DHT22;47128;47.530;8.584;2023-01-01T07:32:13;12.60;99.90
61255;DHT22;47128;47.530;8.584;2023-01-01T07:34:39;12.50;99.90
61255;DHT22;47128;47.530;8.584;2023-01-01T07:37:04;12.20;99.90
61255;DHT22;47128;47.530;8.584;2023-01-01T07:39:30;12.20;99.90
61255;DHT22;47128;47.530;8.584;2023-01-01T07:41:55;12.40;99.90
61255;DHT22;47128;47.530;8.584;2023-01-01T07:44:20;12.50;99.90
61255;DHT22;47128;47.530;8.584;2023-01-01T07:46:46;12.70;99.90
61255;DHT22;47128;47.530;8.584;2023-01-01T07:49:11;12.70;99.90
61255;DHT22;47128;47.530;8.584;2023-01-01T07:51:37;12.70;99.90
61255;DHT22;47128;47.530;8.584;2023-01-01T07:54:02;12.80;99.90
61255;DHT22;47128;47.530;8.584;2023-01-01T07:56:28;12.70;99.90
61255;DHT22;47128;47.530;8.584;2023-01-01T07:58:53;12.60;99.90
61255;DHT22;47128;47.530;8.584;2023-01-01T08:01:19;12.80;99.90
61255;DHT22;47128;47.530;8.584;2023-01-01T08:03:48;12.60;99.90
61255;DHT22;47128;47.530;8.584;2023-01-01T08:06:14;12.60;99.90
61255;DHT22;47128;47.530;8.584;2023-01-01T08:08:40;12.60;99.90
61255;DHT22;47128;47.530;8.584;2023-01-01T08:11:05;12.60;99.90
61255;DHT22;47128;47.530;8.584;2023-01-01T08:13:31;12.60;99.90
61255;DHT22;47128;47.530;8.584;2023-01-01T08:15:57;12.60;99.90
61255;DHT22;47128;47.530;8.584;2023-01-01T08:18:22;12.70;99.90
61255;DHT22;47128;47.530;8.584;2023-01-01T08:20:48;12.80;99.90
61255;DHT22;47128;47.530;8.584;2023-01-01T08:23:13;12.70;99.90
61255;DHT22;47128;47.530;8.584;2023-01-01T08:25:38;12.90;99.90
61255;DHT22;47128;47.530;8.584;2023-01-01T08:28:04;12.90;99.90
61255;DHT22;47128;47.530;8.584;2023-01-01T08:30:29;12.90;99.90
61255;DHT22;47128;47.530;8.584;2023-01-01T08:32:55;12.80;99.90
61255;DHT22;47128;47.530;8.584;2023-01-01T08:35:20;13.20;99.90
61255;DHT22;47128;47.530;8.584;2023-01-01T08:37:46;13.30;99.90
61255;DHT22;47128;47.530;8.584;2023-01-01T08:40:11;13.30;99.90
61255;DHT22;47128;47.530;8.584;2023-01-01T08:42:37;13.30;99.90
61255;DHT22;47128;47.530;8.584;2023-01-01T08:45:03;13.30;99.90
61255;DHT22;47128;47.530;8.584;2023-01-01T08:47:28;13.50;99.20
61255;DHT22;47128;47.530;8.584;2023-01-01T08:49:54;13.60;99.10
61255;DHT22;47128;47.530;8.584;2023-01-01T08:52:19;13.70;98.90
61255;DHT22;47128;47.530;8.584;2023-01-01T08:54:45;13.70;98.90
61255;DHT22;47128;47.530;8.584;2023-01-01T08:57:10;14.10;97.70
61255;DHT22;47128;47.530;8.584;2023-01-01T08:59:36;14.00;97.70
61255;DHT22;47128;47.530;8.584;2023-01-01T09:02:01;14.10;97.70
61255;DHT22;47128;47.530;8.584;2023-01-01T09:04:27;14.10;97.60
61255;DHT22;47128;47.530;8.584;2023-01-01T09:06:52;14.20;97.80
61255;DHT22;47128;47.530;8.584;2023-01-01T09:09:18;14.20;97.40
61255;DHT22;47128;47.530;8.584;2023-01-01T09:11:53;14.10;97.30
61255;DHT22;47128;47.530;8.584;2023-01-01T09:14:19;14.20;97.30
61255;DHT22;47128;47.530;8.584;2023-01-01T09:16:45;14.30;97.10
61255;DHT22;47128;47.530;8.584;2023-01-01T09:19:11;14.20;97.40
61255;DHT22;47128;47.530;8.584;2023-01-01T09:21:36;14.10;97.60
61255;DHT22;47128;47.530;8.584;2023-01-01T09:24:02;14.00;98.60
61255;DHT22;47128;47.530;8.584;2023-01-01T09:26:28;13.90;99.10
61255;DHT22;47128;47.530;8.584;2023-01-01T09:28:53;13.80;99.10
61255;DHT22;47128;47.530;8.584;2023-01-01T09:31:19;13.80;99.00
61255;DHT22;47128;47.530;8.584;2023-01-01T09:33:44;13.80;99.10
61255;DHT22;47128;47.530;8.584;2023-01-01T09:36:14;14.00;98.00
61255;DHT22;47128;47.530;8.584;2023-01-01T09:38:39;14.30;97.80
61255;DHT22;47128;47.530;8.584;2023-01-01T09:43:49;14.30;97.90
61255;DHT22;47128;47.530;8.584;2023-01-01T09:46:19;14.60;97.30
61255;DHT22;47128;47.530;8.584;2023-01-01T09:48:57;15.20;96.40
61255;DHT22;47128;47.530;8.584;2023-01-01T09:51:23;15.80;95.40
61255;DHT22;47128;47.530;8.584;2023-01-01T09:53:54;16.40;94.30
61255;DHT22;47128;47.530;8.584;2023-01-01T09:56:25;17.00;93.60
61255;DHT22;47128;47.530;8.584;2023-01-01T09:58:52;17.20;94.00
61255;DHT22;47128;47.530;8.584;2023-01-01T10:02:03;17.30;93.70
61255;DHT22;47128;47.530;8.584;2023-01-01T10:04:56;17.50;93.20
61255;DHT22;47128;47.530;8.584;2023-01-01T10:07:02;17.50;93.20
61255;DHT22;47128;47.530;8.584;2023-01-01T10:15:22;17.80;92.00
61255;DHT22;47128;47.530;8.584;2023-01-01T10:17:49;18.80;90.70
61255;DHT22;47128;47.530;8.584;2023-01-01T10:22:48;19.80;90.00
61255;DHT22;47128;47.530;8.584;2023-01-01T10:25:22;20.20;87.20
61255;DHT22;47128;47.530;8.584;2023-01-01T10:27:52;20.50;86.30
61255;DHT22;47128;47.530;8.584;2023-01-01T10:30:21;20.90;85.50
61255;DHT22;47128;47.530;8.584;2023-01-01T10:32:48;21.10;85.20
61255;DHT22;47128;47.530;8.584;2023-01-01T10:35:21;21.40;82.60
61255;DHT22;47128;47.530;8.584;2023-01-01T10:37:48;21.50;83.10
61255;DHT22;47128;47.530;8.584;2023-01-01T10:40:16;21.30;84.00
61255;DHT22;47128;47.530;8.584;2023-01-01T10:42:43;21.80;82.00
61255;DHT22;47128;47.530;8.584;2023-01-01T10:45:16;22.10;79.30
61255;DHT22;47128;47.530;8.584;2023-01-01T10:50:39;23.10;76.10
61255;DHT22;47128;47.530;8.584;2023-01-01T10:53:08;22.80;76.00
61255;DHT22;47128;47.530;8.584;2023-01-01T10:55:42;23.10;76.90
61255;DHT22;47128;47.530;8.584;2023-01-01T11:00:38;24.20;72.40
61255;DHT22;47128;47.530;8.584;2023-01-01T11:03:19;24.70;69.60
61255;DHT22;47128;47.530;8.584;2023-01-01T11:06:04;25.00;70.60
61255;DHT22;47128;47.530;8.584;2023-01-01T11:08:31;24.70;69.20
61255;DHT22;47128;47.530;8.584;2023-01-01T11:10:58;25.20;67.40
61255;DHT22;47128;47.530;8.584;2023-01-01T11:13:23;25.30;65.70
61255;DHT22;47128;47.530;8.584;2023-01-01T11:15:49;24.10;67.90
61255;DHT22;47128;47.530;8.584;2023-01-01T11:18:22;22.10;67.30
61255;DHT22;47128;47.530;8.584;2023-01-01T11:20:57;21.40;69.80
61255;DHT22;47128;47.530;8.584;2023-01-01T11:23:30;20.90;71.60
61255;DHT22;47128;47.530;8.584;2023-01-01T11:26:41;20.40;71.10
61255;DHT22;47128;47.530;8.584;2023-01-01T11:28:41;20.20;72.70
61255;DHT22;47128;47.530;8.584;2023-01-01T11:31:14;19.50;75.50
61255;DHT22;47128;47.530;8.584;2023-01-01T11:33:45;18.90;77.00
61255;DHT22;47128;47.530;8.584;2023-01-01T11:36:30;18.40;77.90
61255;DHT22;47128;47.530;8.584;2023-01-01T11:39:19;18.10;78.80
61255;DHT22;47128;47.530;8.584;2023-01-01T11:41:47;18.00;79.60
61255;DHT22;47128;47.530;8.584;2023-01-01T11:44:21;17.90;79.90
61255;DHT22;47128;47.530;8.584;2023-01-01T11:46:48;17.70;81.70
61255;DHT22;47128;47.530;8.584;2023-01-01T11:49:14;17.40;82.90
61255;DHT22;47128;47.530;8.584;2023-01-01T11:51:45;17.20;83.30
61255;DHT22;47128;47.530;8.584;2023-01-01T11:56:49;17.10;84.90
61255;DHT22;47128;47.530;8.584;2023-01-01T11:59:17;17.00;85.90
61255;DHT22;47128;47.530;8.584;2023-01-01T12:01:49;16.90;85.60
61255;DHT22;47128;47.530;8.584;2023-01-01T12:04:24;17.00;84.40
61255;DHT22;47128;47.530;8.584;2023-01-01T12:06:53;17.10;85.90
61255;DHT22;47128;47.530;8.584;2023-01-01T12:09:36;16.90;88.20
61255;DHT22;47128;47.530;8.584;2023-01-01T12:12:07;17.00;84.60
61255;DHT22;47128;47.530;8.584;2023-01-01T12:14:35;17.20;83.70
61255;DHT22;47128;47.530;8.584;2023-01-01T12:19:57;18.40;81.80
61255;DHT22;47128;47.530;8.584;2023-01-01T12:22:25;18.30;83.60
61255;DHT22;47128;47.530;8.584;2023-01-01T12:24:51;18.00;83.10
61255;DHT22;47128;47.530;8.584;2023-01-01T12:33:01;17.40;83.60
61255;DHT22;47128;47.530;8.584;2023-01-01T12:35:41;17.00;85.20
61255;DHT22;47128;47.530;8.584;2023-01-01T12:40:37;17.40;83.10
61255;DHT22;47128;47.530;8.584;2023-01-01T12:43:07;17.40;82.80
61255;DHT22;47128;47.530;8.584;2023-01-01T12:51:09;17.20;85.60
61255;DHT22;47128;47.530;8.584;2023-01-01T12:53:48;17.30;83.70
61255;DHT22;47128;47.530;8.584;2023-01-01T12:58:56;17.10;86.70
61255;DHT22;47128;47.530;8.584;2023-01-01T13:01:24;16.70;88.20
61255;DHT22;47128;47.530;8.584;2023-01-01T13:03:58;16.40;90.30
61255;DHT22;47128;47.530;8.584;2023-01-01T13:06:27;16.30;90.00
61255;DHT22;47128;47.530;8.584;2023-01-01T13:08:58;16.90;84.50
61255;DHT22;47128;47.530;8.584;2023-01-01T13:11:26;17.60;86.30
61255;DHT22;47128;47.530;8.584;2023-01-01T13:13:52;18.00;84.20
61255;DHT22;47128;47.530;8.584;2023-01-01T13:16:31;18.30;83.70
61255;DHT22;47128;47.530;8.584;2023-01-01T13:18:57;18.40;82.60
61255;DHT22;47128;47.530;8.584;2023-01-01T13:21:23;18.20;83.10
61255;DHT22;47128;47.530;8.584;2023-01-01T13:23:50;17.80;82.00
61255;DHT22;47128;47.530;8.584;2023-01-01T13:28:41;17.10;82.30
61255;DHT22;47128;47.530;8.584;2023-01-01T13:31:07;17.00;82.50
61255;DHT22;47128;47.530;8.584;2023-01-01T13:33:32;16.90;83.40
61255;DHT22;47128;47.530;8.584;2023-01-01T13:38:43;16.80;83.10
61255;DHT22;47128;47.530;8.584;2023-01-01T13:49:24;16.80;82.20
61255;DHT22;47128;47.530;8.584;2023-01-01T13:59:50;16.60;83.80
61255;DHT22;47128;47.530;8.584;2023-01-01T14:02:42;16.60;84.10
61255;DHT22;47128;47.530;8.584;2023-01-01T14:10:14;16.30;88.10
61255;DHT22;47128;47.530;8.584;2023-01-01T14:12:40;16.00;88.20
61255;DHT22;47128;47.530;8.584;2023-01-01T14:17:31;15.70;89.00
61255;DHT22;47128;47.530;8.584;2023-01-01T14:19:58;15.70;89.70
61255;DHT22;47128;47.530;8.584;2023-01-01T14:22:23;15.50;90.20
61255;DHT22;47128;47.530;8.584;2023-01-01T14:24:50;15.30;90.90
61255;DHT22;47128;47.530;8.584;2023-01-01T14:27:17;15.10;91.30
61255;DHT22;47128;47.530;8.584;2023-01-01T14:29:45;14.80;92.50
61255;DHT22;47128;47.530;8.584;2023-01-01T14:32:12;14.50;93.50
61255;DHT22;47128;47.530;8.584;2023-01-01T14:34:38;14.50;98.40
61255;DHT22;47128;47.530;8.584;2023-01-01T14:37:04;14.00;96.00
61255;DHT22;47128;47.530;8.584;2023-01-01T14:39:30;13.90;95.70
61255;DHT22;47128;47.530;8.584;2023-01-01T14:42:00;13.70;97.90
61255;DHT22;47128;47.530;8.584;2023-01-01T14:44:29;13.50;99.00
61255;DHT22;47128;47.530;8.584;2023-01-01T14:46:57;13.40;99.90
61255;DHT22;47128;47.530;8.584;2023-01-01T14:49:27;13.30;99.90
61255;DHT22;47128;47.530;8.584;2023-01-01T14:51:57;13.00;99.90
61255;DHT22;47128;47.530;8.584;2023-01-01T14:54:26;12.80;99.90
61255;DHT22;47128;47.530;8.584;2023-01-01T14:56:54;12.70;99.90
61255;DHT22;47128;47.530;8.584;2023-01-01T14:59:21;12.60;99.90
61255;DHT22;47128;47.530;8.584;2023-01-01T15:02:49;12.40;99.90
61255;DHT22;47128;47.530;8.584;2023-01-01T15:04:43;12.30;99.90
61255;DHT22;47128;47.530;8.584;2023-01-01T15:07:22;12.30;99.90
61255;DHT22;47128;47.530;8.584;2023-01-01T15:09:48;12.20;99.90
61255;DHT22;47128;47.530;8.584;2023-01-01T15:12:14;12.10;99.90
61255;DHT22;47128;47.530;8.584;2023-01-01T15:14:42;12.00;99.90
61255;DHT22;47128;47.530;8.584;2023-01-01T15:17:13;11.90;99.90
61255;DHT22;47128;47.530;8.584;2023-01-01T15:19:39;11.80;99.90
61255;DHT22;47128;47.530;8.584;2023-01-01T15:22:09;11.70;99.90
61255;DHT22;47128;47.530;8.584;2023-01-01T15:24:35;11.60;99.90
61255;DHT22;47128;47.530;8.584;2023-01-01T15:27:05;11.50;99.90
61255;DHT22;47128;47.530;8.584;2023-01-01T15:29:32;11.60;99.90
61255;DHT22;47128;47.530;8.584;2023-01-01T15:32:02;11.50;99.90
61255;DHT22;47128;47.530;8.584;2023-01-01T15:36:54;11.50;99.90
61255;DHT22;47128;47.530;8.584;2023-01-01T15:39:20;11.30;99.90
61255;DHT22;47128;47.530;8.584;2023-01-01T15:41:49;11.20;99.90
61255;DHT22;47128;47.530;8.584;2023-01-01T15:44:19;11.10;99.90
61255;DHT22;47128;47.530;8.584;2023-01-01T15:46:48;11.00;99.90
61255;DHT22;47128;47.530;8.584;2023-01-01T15:51:47;10.90;99.90
61255;DHT22;47128;47.530;8.584;2023-01-01T15:54:14;10.80;99.90
61255;DHT22;47128;47.530;8.584;2023-01-01T15:56:41;10.70;99.90
61255;DHT22;47128;47.530;8.584;2023-01-01T15:59:19;10.60;99.90
61255;DHT22;47128;47.530;8.584;2023-01-01T16:01:46;10.60;99.90
61255;DHT22;47128;47.530;8.584;2023-01-01T16:04:15;10.60;99.90
61255;DHT22;47128;47.530;8.584;2023-01-01T16:06:42;10.60;99.90
61255;DHT22;47128;47.530;8.584;2023-01-01T16:09:10;10.60;99.90
61255;DHT22;47128;47.530;8.584;2023-01-01T16:11:36;10.70;99.90
61255;DHT22;47128;47.530;8.584;2023-01-01T16:14:01;10.60;99.90
61255;DHT22;47128;47.530;8.584;2023-01-01T16:16:27;10.50;99.90
61255;DHT22;47128;47.530;8.584;2023-01-01T16:21:20;10.40;99.90
61255;DHT22;47128;47.530;8.584;2023-01-01T16:23:46;10.40;99.90
61255;DHT22;47128;47.530;8.584;2023-01-01T16:26:12;10.30;99.90
61255;DHT22;47128;47.530;8.584;2023-01-01T16:28:38;10.20;99.90
61255;DHT22;47128;47.530;8.584;2023-01-01T16:31:03;10.20;99.90
61255;DHT22;47128;47.530;8.584;2023-01-01T16:33:29;10.00;99.90
61255;DHT22;47128;47.530;8.584;2023-01-01T16:38:20;9.90;99.90
61255;DHT22;47128;47.530;8.584;2023-01-01T16:40:45;9.90;99.90
61255;DHT22;47128;47.530;8.584;2023-01-01T16:43:13;9.80;99.90
61255;DHT22;47128;47.530;8.584;2023-01-01T16:45:39;9.80;99.90
61255;DHT22;47128;47.530;8.584;2023-01-01T16:48:04;9.80;99.90
61255;DHT22;47128;47.530;8.584;2023-01-01T16:50:30;9.70;99.90
61255;DHT22;47128;47.530;8.584;2023-01-01T16:55:21;9.60;99.90
61255;DHT22;47128;47.530;8.584;2023-01-01T16:57:47;9.70;99.90
61255;DHT22;47128;47.530;8.584;2023-01-01T17:00:12;9.60;99.90
61255;DHT22;47128;47.530;8.584;2023-01-01T17:02:38;9.60;99.90
61255;DHT22;47128;47.530;8.584;2023-01-01T17:05:03;9.60;99.90
61255;DHT22;47128;47.530;8.584;2023-01-01T17:07:29;9.50;99.90
61255;DHT22;47128;47.530;8.584;2023-01-01T17:09:54;9.40;99.90
61255;DHT22;47128;47.530;8.584;2023-01-01T17:12:20;9.40;99.90
61255;DHT22;47128;47.530;8.584;2023-01-01T17:14:45;9.40;99.90
61255;DHT22;47128;47.530;8.584;2023-01-01T17:17:11;9.40;99.90
61255;DHT22;47128;47.530;8.584;2023-01-01T17:19:36;9.30;99.90
61255;DHT22;47128;47.530;8.584;2023-01-01T17:22:02;9.30;99.90
61255;DHT22;47128;47.530;8.584;2023-01-01T17:24:30;9.20;99.90
61255;DHT22;47128;47.530;8.584;2023-01-01T17:26:55;9.20;99.90
61255;DHT22;47128;47.530;8.584;2023-01-01T17:29:21;9.20;99.90